Divide, MT (59727)

15:46 MDT le 02 septembre 2015 (GMT -0600)
Mooney | | Change Station
CLOSE
Current Station
Aéroport
Location: Butte,
Altitude: 5545 ft
Stations météo à proximité
Avis météorologiques actifs: Fire Weather Warning

Alt. 5545 ft 45.95 °N, 112.50 °W | Updated 53 minutes ago

Partiellement nuageux
Partiellement nuageux
82 ° F
Paraît 82 ° F
N
17
Vent Variable Vent de OSO
Gusts 26 mph

Aujourd'hui
Haut(e) -- | Bas -- ° F
--% Risque de précip.
Hier
Haut(e) -- | Bas -- ° F
Precip. -- pouce
6:52 AM 8:07 PM
Lune gibbeuse décroissante, 77% visible
Pression 29.64 pouce
Visibilité 10.0 Miles terrestres
Nuages Ciel dégagé
Point de rosée 25 ° F
Humidité 12%
Précipitations 0.00 pouce
Profondeur de la couche neigeuse Non disponible.
UV 7 sur 12
Pollen 8.40 sur 12
Qualité de l'air Non disponible.
Flu Activity Non disponible.
METAR KBTM 022053Z AUTO 24015G23KT 10SM CLR 28/M04 A2980 RMK AO2 SLP035 T02781039 58017
Pression 29.64 pouce
Visibilité 10.0 Miles terrestres
Nuages Ciel dégagé
Point de rosée 25 ° F
Humidité 12%
Précipitations 0.00 pouce
Profondeur de la couche neigeuse Non disponible.
UV 7 sur 12
Pollen 8.40 sur 12
Qualité de l'air Non disponible.
Flu Activity Non disponible.
METAR KBTM 022053Z AUTO 24015G23KT 10SM CLR 28/M04 A2980 RMK AO2 SLP035 T02781039 58017

10-Day Weather Forecast

×

Almanac

Astronomie

Sep. 02, 2015 Lever Coucher
Temps réel
Crépuscule civil
Crépuscule nautique
Crépuscule astronomique
Lune
Durée de lumière visible
Longueur du jour
Tomorrow will be .
, % of the Moon is Illuminated

Extrêmes aujourd'hui

State Highs State Lows

Community

WunderPhotos

Upload Photos

1,851,818 Photos téléchargées !

WunderBlogs® & News

Nearby

Qualité de l'air

  Qualité de l'air Indice de la qualité de l'air Polluant
Not available.

Épaisseur de neige

Station Depth Altitude

Activité sismique

Ville Distance Mag. Time & Date
Minimum magnitude displayed is 2.5.

Températures des eaux côtières

Lieu Température

Stations

Stations météo à proximité

Emplacement de la station Température Refroidissement éolien Point de rosée Humidité Vent Precip. Alt. Mise à jour Type
                   
Fire Weather Warning
Statement as of 10:47 MDT le 01 septembre 2015

... Red flag warning in effect from noon to 9 PM MDT Wednesday for
gusty winds and low humidities across the deerlodge/west
Beaverhead... east Beaverhead...

The National Weather Service in Missoula has issued a red flag
warning for gusty winds and low humidities... which is in effect
from noon to 9 PM MDT Wednesday. The Fire Weather Watch is no
longer in effect.

* Winds: southwest 20-25 mph with gusts to 40 mph, especially on
ridgetops and any exposed terrain.

* Minimum humidities: 12-20 percent.

* Timing: winds will begin to develop ahead of an approaching cold
front around noon... peaking in the late afternoon and early
evening when humidity will be lowest.